createdAt,value
2024-02-24T00:03:41.731Z,101097.35
2024-02-24T00:07:24.183Z,101096.43
2024-02-24T00:11:06.967Z,101103.97
2024-02-24T00:14:49.928Z,101100.78
2024-02-24T00:18:32.519Z,101099.30
2024-02-24T00:22:15.228Z,101098.14
2024-02-24T00:25:57.917Z,101096.02
2024-02-24T00:29:40.747Z,101097.70
2024-02-24T00:33:23.911Z,101094.80
2024-02-24T00:37:08.147Z,101099.17
2024-02-24T00:40:50.800Z,101104.12
2024-02-24T00:44:27.447Z,101106.54
2024-02-24T00:48:04.374Z,101116.95
2024-02-24T00:51:41.074Z,101114.25
2024-02-24T00:55:17.680Z,101108.08
2024-02-24T00:58:54.549Z,101107.88
2024-02-24T01:02:37.366Z,101105.70
2024-02-24T01:06:21.925Z,101103.59
2024-02-24T01:10:06.219Z,101104.27
2024-02-24T01:13:50.372Z,101101.77
2024-02-24T01:17:20.011Z,101100.46
2024-02-24T01:21:02.518Z,101100.07
2024-02-24T01:24:45.644Z,101101.48
2024-02-24T01:28:28.020Z,101095.58
2024-02-24T01:32:10.642Z,101098.74
2024-02-24T01:35:53.092Z,101099.53
2024-02-24T01:39:35.716Z,101093.64
2024-02-24T01:43:15.277Z,101091.23
2024-02-24T01:46:51.333Z,101095.00
2024-02-24T01:50:26.167Z,101099.11
2024-02-24T01:54:00.873Z,101104.46
2024-02-24T01:57:35.999Z,101109.23
2024-02-24T02:01:11.560Z,101109.22
2024-02-24T02:04:46.963Z,101110.90
2024-02-24T02:08:27.825Z,101112.77
2024-02-24T02:12:08.165Z,101116.10
2024-02-24T02:15:49.570Z,101118.67
2024-02-24T02:19:25.123Z,101118.62
2024-02-24T02:23:00.419Z,101118.78
2024-02-24T02:26:41.185Z,101121.08
2024-02-24T02:30:22.218Z,101119.05
2024-02-24T02:34:03.302Z,101117.52
2024-02-24T02:37:43.944Z,101117.45
2024-02-24T02:41:25.002Z,101117.86
2024-02-24T02:45:06.215Z,101120.48
2024-02-24T02:47:39.994Z,101126.50
2024-02-24T02:50:13.800Z,101128.70
2024-02-24T02:52:47.578Z,101129.95
2024-02-24T02:55:22.268Z,101131.02
2024-02-24T02:57:56.104Z,101130.77
2024-02-24T03:00:29.822Z,101130.31
2024-02-24T03:03:03.742Z,101129.70
2024-02-24T03:05:37.678Z,101124.73
2024-02-24T03:08:11.490Z,101124.30
2024-02-24T03:10:45.426Z,101123.65
2024-02-24T03:13:19.261Z,101132.42
2024-02-24T03:15:53.139Z,101128.30
2024-02-24T03:18:27.082Z,101124.48
2024-02-24T03:21:00.869Z,101130.95
2024-02-24T03:23:34.668Z,101135.67
2024-02-24T03:26:08.570Z,101134.36
2024-02-24T03:28:42.352Z,101133.31
2024-02-24T03:31:16.129Z,101128.67
2024-02-24T03:33:49.956Z,101130.48
2024-02-24T03:36:23.701Z,101125.79
2024-02-24T03:38:57.461Z,101124.69
2024-02-24T03:41:32.955Z,101128.95
2024-02-24T03:44:06.903Z,101130.54
2024-02-24T03:46:40.728Z,101128.01
2024-02-24T03:49:14.966Z,101125.38
2024-02-24T03:51:48.710Z,101126.92
2024-02-24T03:54:23.991Z,101126.59
2024-02-24T03:56:57.696Z,101125.05
2024-02-24T03:59:31.465Z,101125.41
2024-02-24T04:02:05.439Z,101126.56
2024-02-24T04:04:39.165Z,101126.89
2024-02-24T04:07:13.744Z,101126.77
2024-02-24T04:09:47.563Z,101129.80
2024-02-24T04:12:21.556Z,101131.86
2024-02-24T04:14:55.470Z,101126.61
2024-02-24T04:17:29.284Z,101123.88
2024-02-24T04:20:03.241Z,101127.48
2024-02-24T04:22:37.140Z,101134.86
2024-02-24T04:25:11.084Z,101143.02
2024-02-24T04:27:44.836Z,101147.19
2024-02-24T04:30:18.584Z,101148.02
2024-02-24T04:32:52.483Z,101144.20
2024-02-24T04:35:26.444Z,101149.64
2024-02-24T04:38:00.309Z,101146.70
2024-02-24T04:40:36.230Z,101142.70
2024-02-24T04:43:10.237Z,101144.54
2024-02-24T04:45:49.970Z,101144.55
2024-02-24T04:48:24.424Z,101150.39
2024-02-24T04:51:04.799Z,101157.92
2024-02-24T04:53:44.866Z,101160.55
2024-02-24T04:56:24.960Z,101159.43
2024-02-24T04:59:04.839Z,101157.36
2024-02-24T05:01:44.796Z,101154.92
2024-02-24T05:04:24.649Z,101157.00
2024-02-24T05:07:04.940Z,101156.70
2024-02-24T05:09:44.765Z,101161.70
2024-02-24T05:12:24.525Z,101164.42
2024-02-24T05:14:58.297Z,101162.26
2024-02-24T05:17:32.236Z,101162.70
2024-02-24T05:20:08.658Z,101166.85
2024-02-24T05:22:42.551Z,101166.50
2024-02-24T05:25:18.095Z,101168.39
2024-02-24T05:27:51.860Z,101170.09
2024-02-24T05:30:25.588Z,101167.47
2024-02-24T05:32:59.502Z,101168.28
2024-02-24T05:35:33.465Z,101174.30
2024-02-24T05:38:07.287Z,101177.15
2024-02-24T05:40:35.047Z,101176.70
2024-02-24T05:43:08.989Z,101182.33
2024-02-24T05:45:43.215Z,101180.72
2024-02-24T05:48:16.979Z,101181.45
2024-02-24T05:50:50.886Z,101182.34
2024-02-24T05:53:24.703Z,101186.96
2024-02-24T05:55:58.851Z,101184.39
2024-02-24T05:58:32.766Z,101189.55
2024-02-24T06:01:06.488Z,101191.16
2024-02-24T06:03:40.428Z,101191.83
2024-02-24T06:06:14.519Z,101195.60
2024-02-24T06:08:48.619Z,101195.66
2024-02-24T06:11:22.717Z,101199.34
2024-02-24T06:13:56.611Z,101198.92
2024-02-24T06:16:30.363Z,101205.61
2024-02-24T06:19:04.193Z,101206.48
2024-02-24T06:21:37.977Z,101208.35
2024-02-24T06:24:11.952Z,101210.98
2024-02-24T06:26:45.747Z,101208.72
2024-02-24T06:29:20.097Z,101208.60
2024-02-24T06:31:53.875Z,101212.92
2024-02-24T06:34:27.609Z,101216.33
2024-02-24T06:37:01.426Z,101213.35
2024-02-24T06:39:35.236Z,101216.39
2024-02-24T06:42:09.061Z,101214.79
2024-02-24T06:44:43.151Z,101212.75
2024-02-24T06:47:24.834Z,101219.73
2024-02-24T06:49:58.584Z,101223.98
2024-02-24T06:52:34.038Z,101227.54
2024-02-24T06:55:09.693Z,101225.13
2024-02-24T06:57:37.700Z,101228.34
2024-02-24T07:00:13.654Z,101231.48
2024-02-24T07:02:49.219Z,101238.29
2024-02-24T07:05:24.740Z,101234.04
2024-02-24T07:07:58.600Z,101235.09
2024-02-24T07:10:28.127Z,101233.13
2024-02-24T07:13:03.581Z,101233.92
2024-02-24T07:15:38.836Z,101233.34
2024-02-24T07:18:06.905Z,101226.81
2024-02-24T07:20:42.643Z,101236.28
2024-02-24T07:23:18.117Z,101240.92
2024-02-24T07:25:52.011Z,101244.36
2024-02-24T07:28:23.124Z,101248.27
2024-02-24T07:31:00.459Z,101244.00
2024-02-24T07:33:37.528Z,101235.67
2024-02-24T07:36:11.833Z,101233.71
2024-02-24T07:38:45.884Z,101236.12
2024-02-24T07:41:22.759Z,101237.04
2024-02-24T07:43:59.863Z,101233.68
2024-02-24T07:46:35.165Z,101231.46
2024-02-24T07:49:03.249Z,101230.73
2024-02-24T07:51:40.320Z,101228.88
2024-02-24T07:54:15.698Z,101225.60
2024-02-24T07:56:51.333Z,101221.33
2024-02-24T07:59:19.387Z,101218.84
2024-02-24T08:01:54.697Z,101225.80
2024-02-24T08:04:30.091Z,101226.96
2024-02-24T08:07:04.429Z,101229.93
2024-02-24T08:09:33.973Z,101226.48
2024-02-24T08:12:09.620Z,101230.45
2024-02-24T08:14:44.980Z,101230.27
2024-02-24T08:17:19.322Z,101226.77
2024-02-24T08:19:48.628Z,101224.43
2024-02-24T08:22:23.935Z,101227.42
2024-02-24T08:24:59.161Z,101230.75
2024-02-24T08:27:32.891Z,101230.02
2024-02-24T08:30:05.337Z,101230.23
2024-02-24T08:32:42.487Z,101232.59
2024-02-24T08:35:21.108Z,101234.89
2024-02-24T08:37:54.957Z,101236.55
2024-02-24T08:40:25.835Z,101240.35
2024-02-24T08:43:02.771Z,101241.50
2024-02-24T08:45:39.640Z,101238.31
2024-02-24T08:48:14.255Z,101235.96
2024-02-24T08:50:45.218Z,101240.57
2024-02-24T08:53:22.172Z,101239.25
2024-02-24T08:55:59.184Z,101239.25
2024-02-24T08:58:33.025Z,101241.23
2024-02-24T09:01:03.916Z,101234.64
2024-02-24T09:03:40.889Z,101234.67
2024-02-24T09:06:17.945Z,101238.95
2024-02-24T09:08:54.078Z,101234.82
2024-02-24T09:11:23.921Z,101236.23
2024-02-24T09:14:01.227Z,101239.11
2024-02-24T09:16:38.083Z,101241.64
2024-02-24T09:19:12.008Z,101238.57
2024-02-24T09:21:43.132Z,101235.19
2024-02-24T09:24:20.073Z,101244.10
2024-02-24T09:26:56.878Z,101236.08
2024-02-24T09:29:30.689Z,101238.95
2024-02-24T09:32:03.352Z,101242.30
2024-02-24T09:34:41.828Z,101239.50
2024-02-24T09:37:20.343Z,101239.21
2024-02-24T09:39:57.255Z,101240.88
2024-02-24T09:42:28.835Z,101236.14
2024-02-24T09:45:04.343Z,101238.44
2024-02-24T09:47:39.903Z,101241.15
2024-02-24T09:50:13.913Z,101234.81
2024-02-24T09:52:43.569Z,101234.02
2024-02-24T09:55:19.065Z,101230.00
2024-02-24T09:57:56.752Z,101230.41
2024-02-24T10:00:32.163Z,101227.94
2024-02-24T10:03:00.067Z,101224.48
2024-02-24T10:05:37.673Z,101222.27
2024-02-24T10:08:13.676Z,101220.15
2024-02-24T10:10:49.062Z,101221.13
2024-02-24T10:13:21.429Z,101222.25
2024-02-24T10:15:56.627Z,101221.20
2024-02-24T10:18:34.364Z,101225.42
2024-02-24T10:21:08.263Z,101227.79
2024-02-24T10:23:37.573Z,101228.31
2024-02-24T10:26:13.010Z,101229.24
2024-02-24T10:28:48.560Z,101227.52
2024-02-24T10:31:16.372Z,101231.65
2024-02-24T10:33:49.219Z,101229.02
2024-02-24T10:36:23.434Z,101228.04
2024-02-24T10:38:57.240Z,101229.02
2024-02-24T10:41:26.984Z,101231.52
2024-02-24T10:44:10.692Z,101223.66
2024-02-24T10:47:57.102Z,101224.43
2024-02-24T10:51:39.987Z,101217.48
2024-02-24T10:55:16.715Z,101211.05
2024-02-24T10:58:53.704Z,101208.68
2024-02-24T11:02:30.807Z,101204.88
2024-02-24T11:06:07.596Z,101209.25
2024-02-24T11:09:50.621Z,101204.13
2024-02-24T11:13:33.248Z,101198.63
2024-02-24T11:17:16.039Z,101198.46
2024-02-24T11:20:59.292Z,101192.97
2024-02-24T11:24:42.222Z,101198.60
2024-02-24T11:28:24.882Z,101198.47
2024-02-24T11:32:09.263Z,101202.00
2024-02-24T11:35:53.656Z,101205.95
2024-02-24T11:39:37.903Z,101200.08
2024-02-24T11:43:22.577Z,101200.67
2024-02-24T11:47:00.635Z,101198.88
2024-02-24T11:50:37.489Z,101198.55
2024-02-24T11:54:14.252Z,101197.41
2024-02-24T11:57:50.974Z,101201.35
2024-02-24T12:01:27.533Z,101203.41
2024-02-24T12:05:04.179Z,101203.41
2024-02-24T12:08:47.146Z,101206.14
2024-02-24T12:12:23.921Z,101207.44
2024-02-24T12:16:08.490Z,101204.23
2024-02-24T12:19:53.036Z,101206.58
2024-02-24T12:23:35.893Z,101201.05
2024-02-24T12:27:18.685Z,101206.70
2024-02-24T12:30:56.710Z,101203.89
2024-02-24T12:34:33.302Z,101203.80
2024-02-24T12:38:10.189Z,101205.91
2024-02-24T12:41:47.015Z,101199.87
2024-02-24T12:45:23.670Z,101200.68
2024-02-24T12:49:00.823Z,101206.62
2024-02-24T12:52:43.816Z,101211.12
2024-02-24T12:56:20.880Z,101208.59
2024-02-24T12:59:57.867Z,101215.23
2024-02-24T13:03:37.193Z,101208.25
2024-02-24T13:07:14.200Z,101213.91
2024-02-24T13:10:53.558Z,101214.83
2024-02-24T13:14:30.177Z,101220.04
2024-02-24T13:18:07.180Z,101218.64
2024-02-24T13:21:50.063Z,101221.83
2024-02-24T13:25:32.846Z,101229.88
2024-02-24T13:29:17.344Z,101229.41
2024-02-24T13:33:02.124Z,101230.84
2024-02-24T13:36:46.497Z,101228.66
2024-02-24T13:40:30.943Z,101224.55
2024-02-24T13:44:15.370Z,101227.35
2024-02-24T13:47:56.497Z,101229.81
2024-02-24T13:51:33.618Z,101234.31
2024-02-24T13:55:10.684Z,101232.41
2024-02-24T13:58:47.331Z,101235.73
2024-02-24T14:02:24.343Z,101240.43
2024-02-24T14:06:01.056Z,101237.01
2024-02-24T14:09:37.955Z,101241.49
2024-02-24T14:13:20.378Z,101242.82
2024-02-24T14:17:03.113Z,101243.66
2024-02-24T14:20:47.628Z,101250.02
2024-02-24T14:24:31.932Z,101248.39
2024-02-24T14:28:16.517Z,101254.90
2024-02-24T14:32:00.729Z,101257.52
2024-02-24T14:35:45.554Z,101263.20
2024-02-24T14:39:29.753Z,101265.02
2024-02-24T14:43:14.068Z,101258.73
2024-02-24T14:45:54.210Z,101255.46
2024-02-24T14:48:35.413Z,101261.45
2024-02-24T14:51:09.639Z,101266.04
2024-02-24T14:53:43.492Z,101267.05
2024-02-24T14:56:23.530Z,101272.93
2024-02-24T14:59:03.554Z,101268.46
2024-02-24T15:01:37.485Z,101272.98
2024-02-24T15:04:11.354Z,101269.38
2024-02-24T15:06:51.351Z,101277.48
2024-02-24T15:09:31.414Z,101283.27
2024-02-24T15:12:05.715Z,101292.53
2024-02-24T15:14:39.646Z,101296.89
2024-02-24T15:17:19.665Z,101300.20
2024-02-24T15:20:03.234Z,101295.96
2024-02-24T15:22:37.978Z,101293.98
2024-02-24T15:25:13.403Z,101297.05
2024-02-24T15:27:53.582Z,101296.93
2024-02-24T15:30:33.363Z,101301.91
2024-02-24T15:33:07.568Z,101302.07
2024-02-24T15:35:41.455Z,101302.91
2024-02-24T15:38:21.628Z,101308.79
2024-02-24T15:41:01.576Z,101310.11
2024-02-24T15:43:59.626Z,101310.35
2024-02-24T15:46:39.759Z,101317.17
2024-02-24T15:49:14.362Z,101315.05
2024-02-24T15:51:51.532Z,101320.52
2024-02-24T15:54:31.480Z,101323.27
2024-02-24T15:57:11.851Z,101326.41
2024-02-24T15:59:45.934Z,101327.68
2024-02-24T16:02:19.912Z,101326.55
2024-02-24T16:04:59.858Z,101330.83
2024-02-24T16:07:39.823Z,101325.77
2024-02-24T16:10:13.912Z,101328.46
2024-02-24T16:12:48.941Z,101334.67
2024-02-24T16:15:28.835Z,101333.31
2024-02-24T16:18:09.421Z,101337.77
2024-02-24T16:20:43.939Z,101336.58
2024-02-24T16:23:19.616Z,101334.88
2024-02-24T16:25:59.685Z,101343.45
2024-02-24T16:28:39.872Z,101344.94
2024-02-24T16:31:13.871Z,101351.30
2024-02-24T16:33:47.962Z,101350.48
2024-02-24T16:36:28.530Z,101351.20
2024-02-24T16:39:12.987Z,101352.29
2024-02-24T16:41:54.432Z,101361.17
2024-02-24T16:44:22.792Z,101362.42
2024-02-24T16:47:02.993Z,101364.34
2024-02-24T16:49:43.211Z,101360.88
2024-02-24T16:52:23.121Z,101361.65
2024-02-24T16:54:51.003Z,101360.39
2024-02-24T16:57:30.932Z,101364.19
2024-02-24T17:00:12.314Z,101367.55
2024-02-24T17:02:46.408Z,101368.93
2024-02-24T17:05:20.567Z,101368.98
2024-02-24T17:08:00.814Z,101368.64
2024-02-24T17:10:41.114Z,101371.62
2024-02-24T17:13:15.196Z,101366.58
2024-02-24T17:15:49.176Z,101366.85
2024-02-24T17:18:30.895Z,101370.80
2024-02-24T17:21:07.798Z,101374.26
2024-02-24T17:23:43.305Z,101374.24
2024-02-24T17:26:20.749Z,101374.43
2024-02-24T17:29:00.969Z,101373.60
2024-02-24T17:31:40.991Z,101374.60
2024-02-24T17:34:15.947Z,101372.35
2024-02-24T17:36:52.965Z,101367.95
2024-02-24T17:39:32.967Z,101371.67
2024-02-24T17:42:13.969Z,101370.23
2024-02-24T17:44:54.155Z,101372.92
2024-02-24T17:47:22.441Z,101371.88
2024-02-24T17:50:02.738Z,101376.34
2024-02-24T17:52:42.655Z,101384.24
2024-02-24T17:55:19.343Z,101379.77
2024-02-24T17:57:53.682Z,101384.95
2024-02-24T18:00:34.038Z,101381.49
2024-02-24T18:03:15.651Z,101388.13
2024-02-24T18:05:49.643Z,101386.48
2024-02-24T18:08:23.624Z,101386.97
2024-02-24T18:11:03.634Z,101392.23
2024-02-24T18:13:44.230Z,101397.12
2024-02-24T18:16:18.148Z,101402.89
2024-02-24T18:18:52.386Z,101408.27
2024-02-24T18:21:32.332Z,101412.33
2024-02-24T18:24:12.459Z,101413.40
2024-02-24T18:26:46.510Z,101413.95
2024-02-24T18:29:20.481Z,101417.34
2024-02-24T18:32:00.463Z,101416.08
2024-02-24T18:34:41.341Z,101421.88
2024-02-24T18:37:15.246Z,101417.52
2024-02-24T18:39:49.091Z,101420.92
2024-02-24T18:42:28.902Z,101422.42
2024-02-24T18:45:09.032Z,101421.20
2024-02-24T18:48:49.908Z,101425.61
2024-02-24T18:52:32.678Z,101422.01
2024-02-24T18:56:09.801Z,101422.40
2024-02-24T18:59:46.365Z,101423.00
2024-02-24T19:03:29.224Z,101426.30
2024-02-24T19:07:05.913Z,101424.71
2024-02-24T19:10:48.579Z,101423.64
2024-02-24T19:14:25.605Z,101428.63
2024-02-24T19:18:08.465Z,101424.52
2024-02-24T19:21:51.246Z,101432.37
2024-02-24T19:25:34.082Z,101426.45
2024-02-24T19:29:17.464Z,101429.70
2024-02-24T19:32:54.586Z,101429.20
2024-02-24T19:36:37.282Z,101431.95
2024-02-24T19:40:20.116Z,101433.09
2024-02-24T19:44:03.016Z,101434.04
2024-02-24T19:47:45.986Z,101438.96
2024-02-24T19:51:29.308Z,101435.84
2024-02-24T19:55:12.052Z,101437.39
2024-02-24T19:58:56.681Z,101439.42
2024-02-24T20:02:39.890Z,101441.91
2024-02-24T20:06:22.822Z,101440.10
2024-02-24T20:10:05.847Z,101439.00
2024-02-24T20:13:48.458Z,101437.69
2024-02-24T20:17:31.112Z,101441.30
2024-02-24T20:21:13.872Z,101443.59
2024-02-24T20:24:56.565Z,101439.81
2024-02-24T20:28:41.744Z,101442.02
2024-02-24T20:32:26.564Z,101444.66
2024-02-24T20:36:09.554Z,101441.36
2024-02-24T20:39:52.591Z,101443.48
2024-02-24T20:43:35.243Z,101443.83
2024-02-24T20:47:18.170Z,101440.69
2024-02-24T20:51:01.122Z,101443.15
2024-02-24T20:54:44.051Z,101440.55
2024-02-24T20:58:26.736Z,101439.39
2024-02-24T21:02:09.285Z,101434.83
2024-02-24T21:05:52.140Z,101438.16
2024-02-24T21:09:34.820Z,101441.38
2024-02-24T21:13:17.631Z,101438.05
2024-02-24T21:17:00.541Z,101442.60
2024-02-24T21:20:43.255Z,101442.70
2024-02-24T21:24:26.176Z,101441.40
2024-02-24T21:28:10.786Z,101439.09
2024-02-24T21:31:55.042Z,101443.30
2024-02-24T21:35:39.519Z,101440.56
2024-02-24T21:39:22.373Z,101443.73
2024-02-24T21:43:06.487Z,101444.70
2024-02-24T21:46:49.181Z,101442.48
2024-02-24T21:50:33.814Z,101446.58
2024-02-24T21:54:16.699Z,101449.02
2024-02-24T21:58:01.140Z,101449.51
2024-02-24T22:01:43.511Z,101450.03
2024-02-24T22:05:28.117Z,101458.66
2024-02-24T22:09:11.332Z,101455.77
2024-02-24T22:12:55.360Z,101457.77
2024-02-24T22:16:38.022Z,101466.16
2024-02-24T22:20:22.561Z,101466.15
2024-02-24T22:24:05.144Z,101465.29
2024-02-24T22:27:47.618Z,101468.61
2024-02-24T22:31:30.438Z,101468.98
2024-02-24T22:35:13.312Z,101471.08
2024-02-24T22:38:55.847Z,101469.66
2024-02-24T22:42:38.718Z,101467.41
2024-02-24T22:46:36.735Z,101466.61
2024-02-24T22:50:25.411Z,101465.23
2024-02-24T22:54:14.349Z,101466.31
2024-02-24T22:58:02.962Z,101457.78
2024-02-24T23:01:51.869Z,101458.98
2024-02-24T23:05:40.733Z,101463.80
2024-02-24T23:09:29.585Z,101462.98
2024-02-24T23:13:18.439Z,101464.96
2024-02-24T23:17:07.359Z,101469.12
2024-02-24T23:20:55.851Z,101477.45
2024-02-24T23:24:44.922Z,101475.84
2024-02-24T23:28:33.595Z,101479.27
2024-02-24T23:32:22.308Z,101481.65
2024-02-24T23:36:11.292Z,101481.66
2024-02-24T23:40:00.181Z,101478.34
2024-02-24T23:43:48.679Z,101480.02
2024-02-24T23:47:38.072Z,101484.69
2024-02-24T23:51:26.519Z,101479.52
2024-02-24T23:55:14.917Z,101475.30
2024-02-24T23:59:03.806Z,101467.29
